sensor_id;sensor_type;location;lat;lon;timestamp;temperature;humidity
11491;DHT22;5802;52.832;4.758;2023-05-07T00:01:23;24.70;45.20
11491;DHT22;5802;52.832;4.758;2023-05-07T00:03:50;24.70;45.20
11491;DHT22;5802;52.832;4.758;2023-05-07T00:06:16;24.80;45.20
11491;DHT22;5802;52.832;4.758;2023-05-07T00:08:46;24.80;45.20
11491;DHT22;5802;52.832;4.758;2023-05-07T00:11:12;24.70;45.10
11491;DHT22;5802;52.832;4.758;2023-05-07T00:13:39;24.70;45.10
11491;DHT22;5802;52.832;4.758;2023-05-07T00:16:06;24.70;45.00
11491;DHT22;5802;52.832;4.758;2023-05-07T00:18:32;24.70;45.00
11491;DHT22;5802;52.832;4.758;2023-05-07T00:20:59;24.70;45.00
11491;DHT22;5802;52.832;4.758;2023-05-07T00:23:26;24.70;45.00
11491;DHT22;5802;52.832;4.758;2023-05-07T00:25:54;24.70;44.90
11491;DHT22;5802;52.832;4.758;2023-05-07T00:28:20;24.60;44.90
11491;DHT22;5802;52.832;4.758;2023-05-07T00:30:47;24.60;45.00
11491;DHT22;5802;52.832;4.758;2023-05-07T00:33:14;24.60;45.00
11491;DHT22;5802;52.832;4.758;2023-05-07T00:35:41;24.60;45.00
11491;DHT22;5802;52.832;4.758;2023-05-07T00:38:08;24.60;44.90
11491;DHT22;5802;52.832;4.758;2023-05-07T00:40:34;24.60;44.90
11491;DHT22;5802;52.832;4.758;2023-05-07T00:43:03;24.60;44.80
11491;DHT22;5802;52.832;4.758;2023-05-07T00:45:29;24.60;44.80
11491;DHT22;5802;52.832;4.758;2023-05-07T00:47:58;24.60;44.90
11491;DHT22;5802;52.832;4.758;2023-05-07T00:50:26;24.60;44.90
11491;DHT22;5802;52.832;4.758;2023-05-07T00:52:53;24.60;44.80
11491;DHT22;5802;52.832;4.758;2023-05-07T00:55:21;24.60;44.90
11491;DHT22;5802;52.832;4.758;2023-05-07T00:57:49;24.50;44.90
11491;DHT22;5802;52.832;4.758;2023-05-07T01:00:18;24.60;45.00
11491;DHT22;5802;52.832;4.758;2023-05-07T01:02:45;24.50;44.90
11491;DHT22;5802;52.832;4.758;2023-05-07T01:05:13;24.50;44.80
11491;DHT22;5802;52.832;4.758;2023-05-07T01:07:41;24.50;44.90
11491;DHT22;5802;52.832;4.758;2023-05-07T01:10:09;24.50;44.80
11491;DHT22;5802;52.832;4.758;2023-05-07T01:12:37;24.50;44.80
11491;DHT22;5802;52.832;4.758;2023-05-07T01:15:06;24.50;44.90
11491;DHT22;5802;52.832;4.758;2023-05-07T01:17:36;24.50;44.80
11491;DHT22;5802;52.832;4.758;2023-05-07T01:20:04;24.50;44.80
11491;DHT22;5802;52.832;4.758;2023-05-07T01:22:34;24.50;44.80
11491;DHT22;5802;52.832;4.758;2023-05-07T01:25:02;24.50;44.90
11491;DHT22;5802;52.832;4.758;2023-05-07T01:27:30;24.50;44.80
11491;DHT22;5802;52.832;4.758;2023-05-07T01:29:58;24.50;45.40
11491;DHT22;5802;52.832;4.758;2023-05-07T01:32:43;24.50;44.80
11491;DHT22;5802;52.832;4.758;2023-05-07T01:35:11;24.50;44.80
11491;DHT22;5802;52.832;4.758;2023-05-07T01:37:40;24.40;44.70
11491;DHT22;5802;52.832;4.758;2023-05-07T01:40:07;24.40;44.70
11491;DHT22;5802;52.832;4.758;2023-05-07T01:42:35;24.40;44.70
11491;DHT22;5802;52.832;4.758;2023-05-07T01:45:02;24.50;44.80
11491;DHT22;5802;52.832;4.758;2023-05-07T01:47:29;24.40;44.70
11491;DHT22;5802;52.832;4.758;2023-05-07T01:49:57;24.40;44.70
11491;DHT22;5802;52.832;4.758;2023-05-07T01:52:24;24.40;44.70
11491;DHT22;5802;52.832;4.758;2023-05-07T01:54:52;24.40;45.00
11491;DHT22;5802;52.832;4.758;2023-05-07T01:57:18;24.40;45.00
11491;DHT22;5802;52.832;4.758;2023-05-07T01:59:46;24.40;44.90
11491;DHT22;5802;52.832;4.758;2023-05-07T02:02:12;24.40;44.80
11491;DHT22;5802;52.832;4.758;2023-05-07T02:04:39;24.40;44.80
11491;DHT22;5802;52.832;4.758;2023-05-07T02:07:06;24.30;45.00
11491;DHT22;5802;52.832;4.758;2023-05-07T02:09:32;24.30;44.90
11491;DHT22;5802;52.832;4.758;2023-05-07T02:12:00;24.30;44.90
11491;DHT22;5802;52.832;4.758;2023-05-07T02:14:27;24.30;44.90
11491;DHT22;5802;52.832;4.758;2023-05-07T02:16:57;24.30;45.00
11491;DHT22;5802;52.832;4.758;2023-05-07T02:19:23;24.30;45.00
11491;DHT22;5802;52.832;4.758;2023-05-07T02:21:53;24.30;45.10
11491;DHT22;5802;52.832;4.758;2023-05-07T02:24:20;24.30;45.00
11491;DHT22;5802;52.832;4.758;2023-05-07T02:26:47;24.30;45.10
11491;DHT22;5802;52.832;4.758;2023-05-07T02:29:15;24.30;45.10
11491;DHT22;5802;52.832;4.758;2023-05-07T02:31:42;24.30;45.10
11491;DHT22;5802;52.832;4.758;2023-05-07T02:34:09;24.30;45.20
11491;DHT22;5802;52.832;4.758;2023-05-07T02:36:36;24.30;45.10
11491;DHT22;5802;52.832;4.758;2023-05-07T02:39:03;24.30;45.20
11491;DHT22;5802;52.832;4.758;2023-05-07T02:41:30;24.30;45.30
11491;DHT22;5802;52.832;4.758;2023-05-07T02:43:57;24.30;45.20
11491;DHT22;5802;52.832;4.758;2023-05-07T02:46:25;24.20;45.20
11491;DHT22;5802;52.832;4.758;2023-05-07T02:48:52;24.20;45.20
11491;DHT22;5802;52.832;4.758;2023-05-07T02:51:20;24.30;45.30
11491;DHT22;5802;52.832;4.758;2023-05-07T02:53:47;24.20;45.30
11491;DHT22;5802;52.832;4.758;2023-05-07T02:56:14;24.20;45.30
11491;DHT22;5802;52.832;4.758;2023-05-07T02:58:40;24.20;45.30
11491;DHT22;5802;52.832;4.758;2023-05-07T03:01:08;24.20;45.40
11491;DHT22;5802;52.832;4.758;2023-05-07T03:03:36;24.20;45.30
11491;DHT22;5802;52.832;4.758;2023-05-07T03:06:05;24.20;45.40
11491;DHT22;5802;52.832;4.758;2023-05-07T03:08:32;24.20;45.40
11491;DHT22;5802;52.832;4.758;2023-05-07T03:10:59;24.20;45.40
11491;DHT22;5802;52.832;4.758;2023-05-07T03:13:25;24.20;45.40
11491;DHT22;5802;52.832;4.758;2023-05-07T03:15:52;24.20;45.40
11491;DHT22;5802;52.832;4.758;2023-05-07T03:18:19;24.20;45.40
11491;DHT22;5802;52.832;4.758;2023-05-07T03:20:48;24.20;45.40
11491;DHT22;5802;52.832;4.758;2023-05-07T03:23:19;24.20;45.40
11491;DHT22;5802;52.832;4.758;2023-05-07T03:25:46;24.20;45.40
11491;DHT22;5802;52.832;4.758;2023-05-07T03:28:20;24.20;45.40
11491;DHT22;5802;52.832;4.758;2023-05-07T03:30:47;24.20;45.40
11491;DHT22;5802;52.832;4.758;2023-05-07T03:33:13;24.20;45.50
11491;DHT22;5802;52.832;4.758;2023-05-07T03:35:40;24.20;45.40
11491;DHT22;5802;52.832;4.758;2023-05-07T03:38:09;24.20;45.40
11491;DHT22;5802;52.832;4.758;2023-05-07T03:40:35;24.20;45.50
11491;DHT22;5802;52.832;4.758;2023-05-07T03:43:02;24.20;45.50
11491;DHT22;5802;52.832;4.758;2023-05-07T03:45:29;24.20;45.50
11491;DHT22;5802;52.832;4.758;2023-05-07T03:47:55;24.20;45.40
11491;DHT22;5802;52.832;4.758;2023-05-07T03:50:22;24.20;45.50
11491;DHT22;5802;52.832;4.758;2023-05-07T03:52:49;24.20;45.40
11491;DHT22;5802;52.832;4.758;2023-05-07T03:55:17;24.20;45.50
11491;DHT22;5802;52.832;4.758;2023-05-07T03:57:43;24.10;45.40
11491;DHT22;5802;52.832;4.758;2023-05-07T04:00:11;24.10;45.40
11491;DHT22;5802;52.832;4.758;2023-05-07T04:02:38;24.10;45.50
11491;DHT22;5802;52.832;4.758;2023-05-07T04:05:05;24.10;45.40
11491;DHT22;5802;52.832;4.758;2023-05-07T04:07:32;24.10;45.30
11491;DHT22;5802;52.832;4.758;2023-05-07T04:09:58;24.20;45.40
11491;DHT22;5802;52.832;4.758;2023-05-07T04:12:26;24.10;45.50
11491;DHT22;5802;52.832;4.758;2023-05-07T04:14:53;24.10;45.40
11491;DHT22;5802;52.832;4.758;2023-05-07T04:17:20;24.10;45.40
11491;DHT22;5802;52.832;4.758;2023-05-07T04:19:47;24.10;45.40
11491;DHT22;5802;52.832;4.758;2023-05-07T04:22:13;24.10;45.40
11491;DHT22;5802;52.832;4.758;2023-05-07T04:24:40;24.10;45.40
11491;DHT22;5802;52.832;4.758;2023-05-07T04:27:08;24.10;45.40
11491;DHT22;5802;52.832;4.758;2023-05-07T04:29:36;24.10;45.40
11491;DHT22;5802;52.832;4.758;2023-05-07T04:32:04;24.10;45.40
11491;DHT22;5802;52.832;4.758;2023-05-07T04:34:31;24.10;45.30
11491;DHT22;5802;52.832;4.758;2023-05-07T04:36:59;24.20;45.40
11491;DHT22;5802;52.832;4.758;2023-05-07T04:39:29;24.10;45.40
11491;DHT22;5802;52.832;4.758;2023-05-07T04:41:56;24.20;45.40
11491;DHT22;5802;52.832;4.758;2023-05-07T04:44:22;24.20;45.40
11491;DHT22;5802;52.832;4.758;2023-05-07T04:46:51;24.10;45.40
11491;DHT22;5802;52.832;4.758;2023-05-07T04:49:18;24.10;45.30
11491;DHT22;5802;52.832;4.758;2023-05-07T04:51:45;24.10;45.30
11491;DHT22;5802;52.832;4.758;2023-05-07T04:54:11;24.10;45.40
11491;DHT22;5802;52.832;4.758;2023-05-07T04:56:38;24.10;45.40
11491;DHT22;5802;52.832;4.758;2023-05-07T04:59:05;24.10;45.40
11491;DHT22;5802;52.832;4.758;2023-05-07T05:01:32;24.10;45.30
11491;DHT22;5802;52.832;4.758;2023-05-07T05:04:00;24.20;45.40
11491;DHT22;5802;52.832;4.758;2023-05-07T05:06:26;24.20;45.40
11491;DHT22;5802;52.832;4.758;2023-05-07T05:08:53;24.20;45.40
11491;DHT22;5802;52.832;4.758;2023-05-07T05:11:20;24.20;45.40
11491;DHT22;5802;52.832;4.758;2023-05-07T05:13:46;24.20;45.40
11491;DHT22;5802;52.832;4.758;2023-05-07T05:16:14;24.20;45.30
11491;DHT22;5802;52.832;4.758;2023-05-07T05:18:41;24.20;45.40
11491;DHT22;5802;52.832;4.758;2023-05-07T05:21:09;24.20;45.30
11491;DHT22;5802;52.832;4.758;2023-05-07T05:23:35;24.20;45.30
11491;DHT22;5802;52.832;4.758;2023-05-07T05:26:03;24.20;46.00
11491;DHT22;5802;52.832;4.758;2023-05-07T05:28:30;24.20;45.40
11491;DHT22;5802;52.832;4.758;2023-05-07T05:30:56;24.20;45.40
11491;DHT22;5802;52.832;4.758;2023-05-07T05:33:23;24.20;45.30
11491;DHT22;5802;52.832;4.758;2023-05-07T05:35:50;24.20;45.40
11491;DHT22;5802;52.832;4.758;2023-05-07T05:38:18;24.20;45.40
11491;DHT22;5802;52.832;4.758;2023-05-07T05:40:46;24.20;45.40
11491;DHT22;5802;52.832;4.758;2023-05-07T05:43:13;24.20;45.30
11491;DHT22;5802;52.832;4.758;2023-05-07T05:45:40;24.20;45.30
11491;DHT22;5802;52.832;4.758;2023-05-07T05:48:06;24.20;45.30
11491;DHT22;5802;52.832;4.758;2023-05-07T05:50:34;24.20;45.30
11491;DHT22;5802;52.832;4.758;2023-05-07T05:53:02;24.20;45.30
11491;DHT22;5802;52.832;4.758;2023-05-07T05:55:30;24.20;45.20
11491;DHT22;5802;52.832;4.758;2023-05-07T05:57:57;24.20;45.20
11491;DHT22;5802;52.832;4.758;2023-05-07T06:00:24;24.20;45.20
11491;DHT22;5802;52.832;4.758;2023-05-07T06:02:51;24.20;45.10
11491;DHT22;5802;52.832;4.758;2023-05-07T06:05:18;24.30;45.10
11491;DHT22;5802;52.832;4.758;2023-05-07T06:07:45;24.30;45.10
11491;DHT22;5802;52.832;4.758;2023-05-07T06:10:12;24.30;45.10
11491;DHT22;5802;52.832;4.758;2023-05-07T06:12:41;24.30;45.00
11491;DHT22;5802;52.832;4.758;2023-05-07T06:15:09;24.30;45.00
11491;DHT22;5802;52.832;4.758;2023-05-07T06:17:38;24.30;45.00
11491;DHT22;5802;52.832;4.758;2023-05-07T06:20:06;24.40;44.90
11491;DHT22;5802;52.832;4.758;2023-05-07T06:22:34;24.40;44.90
11491;DHT22;5802;52.832;4.758;2023-05-07T06:25:00;24.40;44.90
11491;DHT22;5802;52.832;4.758;2023-05-07T06:27:27;24.40;44.90
11491;DHT22;5802;52.832;4.758;2023-05-07T06:29:55;24.40;44.90
11491;DHT22;5802;52.832;4.758;2023-05-07T06:32:22;24.40;44.90
11491;DHT22;5802;52.832;4.758;2023-05-07T06:34:49;24.40;44.90
11491;DHT22;5802;52.832;4.758;2023-05-07T06:37:15;24.50;44.90
11491;DHT22;5802;52.832;4.758;2023-05-07T06:39:42;24.50;45.00
11491;DHT22;5802;52.832;4.758;2023-05-07T06:42:09;24.50;44.90
11491;DHT22;5802;52.832;4.758;2023-05-07T06:44:35;24.50;44.90
11491;DHT22;5802;52.832;4.758;2023-05-07T06:47:03;24.50;44.90
11491;DHT22;5802;52.832;4.758;2023-05-07T06:49:30;24.50;45.10
11491;DHT22;5802;52.832;4.758;2023-05-07T06:51:58;24.50;45.00
11491;DHT22;5802;52.832;4.758;2023-05-07T06:54:24;24.50;44.90
11491;DHT22;5802;52.832;4.758;2023-05-07T06:56:51;24.50;44.90
11491;DHT22;5802;52.832;4.758;2023-05-07T06:59:18;24.50;44.90
11491;DHT22;5802;52.832;4.758;2023-05-07T07:01:45;24.60;44.90
11491;DHT22;5802;52.832;4.758;2023-05-07T07:04:13;24.60;44.90
11491;DHT22;5802;52.832;4.758;2023-05-07T07:06:40;24.60;44.90
11491;DHT22;5802;52.832;4.758;2023-05-07T07:09:07;24.60;44.80
11491;DHT22;5802;52.832;4.758;2023-05-07T07:11:33;24.60;44.90
11491;DHT22;5802;52.832;4.758;2023-05-07T07:14:00;24.60;45.00
11491;DHT22;5802;52.832;4.758;2023-05-07T07:16:27;24.60;44.80
11491;DHT22;5802;52.832;4.758;2023-05-07T07:18:53;24.70;44.90
11491;DHT22;5802;52.832;4.758;2023-05-07T07:21:21;24.70;45.10
11491;DHT22;5802;52.832;4.758;2023-05-07T07:23:48;24.70;45.10
11491;DHT22;5802;52.832;4.758;2023-05-07T07:26:15;24.70;45.10
11491;DHT22;5802;52.832;4.758;2023-05-07T07:28:42;24.70;45.10
11491;DHT22;5802;52.832;4.758;2023-05-07T07:31:10;24.70;45.10
11491;DHT22;5802;52.832;4.758;2023-05-07T07:33:36;24.70;45.20
11491;DHT22;5802;52.832;4.758;2023-05-07T07:36:04;24.70;45.00
11491;DHT22;5802;52.832;4.758;2023-05-07T07:38:32;24.70;45.00
11491;DHT22;5802;52.832;4.758;2023-05-07T07:40:59;24.70;45.00
11491;DHT22;5802;52.832;4.758;2023-05-07T07:43:26;24.70;45.30
11491;DHT22;5802;52.832;4.758;2023-05-07T07:45:53;24.70;45.30
11491;DHT22;5802;52.832;4.758;2023-05-07T07:48:20;24.80;45.50
11491;DHT22;5802;52.832;4.758;2023-05-07T07:50:48;24.80;45.50
11491;DHT22;5802;52.832;4.758;2023-05-07T07:53:15;24.80;45.80
11491;DHT22;5802;52.832;4.758;2023-05-07T07:55:43;24.80;46.10
11491;DHT22;5802;52.832;4.758;2023-05-07T07:58:10;24.80;46.10
11491;DHT22;5802;52.832;4.758;2023-05-07T08:00:37;24.90;46.40
11491;DHT22;5802;52.832;4.758;2023-05-07T08:03:03;24.90;46.30
11491;DHT22;5802;52.832;4.758;2023-05-07T08:05:30;24.90;47.00
11491;DHT22;5802;52.832;4.758;2023-05-07T08:07:57;24.90;46.40
11491;DHT22;5802;52.832;4.758;2023-05-07T08:10:23;24.90;46.40
11491;DHT22;5802;52.832;4.758;2023-05-07T08:12:51;24.90;46.40
11491;DHT22;5802;52.832;4.758;2023-05-07T08:15:18;25.00;46.50
11491;DHT22;5802;52.832;4.758;2023-05-07T08:17:45;25.00;46.60
11491;DHT22;5802;52.832;4.758;2023-05-07T08:20:12;25.10;46.50
11491;DHT22;5802;52.832;4.758;2023-05-07T08:22:38;25.10;46.40
11491;DHT22;5802;52.832;4.758;2023-05-07T08:25:06;25.10;46.10
11491;DHT22;5802;52.832;4.758;2023-05-07T08:27:32;25.10;46.00
11491;DHT22;5802;52.832;4.758;2023-05-07T08:30:00;25.20;45.90
11491;DHT22;5802;52.832;4.758;2023-05-07T08:32:27;25.20;45.80
11491;DHT22;5802;52.832;4.758;2023-05-07T08:34:54;25.30;45.60
11491;DHT22;5802;52.832;4.758;2023-05-07T08:37:21;25.30;45.40
11491;DHT22;5802;52.832;4.758;2023-05-07T08:39:47;25.40;45.20
11491;DHT22;5802;52.832;4.758;2023-05-07T08:42:16;25.50;45.10
11491;DHT22;5802;52.832;4.758;2023-05-07T08:44:45;25.50;44.90
11491;DHT22;5802;52.832;4.758;2023-05-07T08:47:13;25.60;45.40
11491;DHT22;5802;52.832;4.758;2023-05-07T08:49:40;25.70;44.60
11491;DHT22;5802;52.832;4.758;2023-05-07T08:52:07;25.70;44.40
11491;DHT22;5802;52.832;4.758;2023-05-07T08:54:33;25.80;44.40
11491;DHT22;5802;52.832;4.758;2023-05-07T08:57:01;25.80;44.80
11491;DHT22;5802;52.832;4.758;2023-05-07T08:59:28;25.90;44.00
11491;DHT22;5802;52.832;4.758;2023-05-07T09:01:55;25.90;43.90
11491;DHT22;5802;52.832;4.758;2023-05-07T09:04:23;26.00;43.90
11491;DHT22;5802;52.832;4.758;2023-05-07T09:06:50;26.00;44.00
11491;DHT22;5802;52.832;4.758;2023-05-07T09:09:17;26.00;44.70
11491;DHT22;5802;52.832;4.758;2023-05-07T09:11:44;26.00;45.00
11491;DHT22;5802;52.832;4.758;2023-05-07T09:14:11;26.00;45.40
11491;DHT22;5802;52.832;4.758;2023-05-07T09:16:38;26.00;45.60
11491;DHT22;5802;52.832;4.758;2023-05-07T09:19:05;26.00;45.70
11491;DHT22;5802;52.832;4.758;2023-05-07T09:21:33;26.00;45.80
11491;DHT22;5802;52.832;4.758;2023-05-07T09:23:59;26.00;45.90
11491;DHT22;5802;52.832;4.758;2023-05-07T09:26:26;26.00;46.20
11491;DHT22;5802;52.832;4.758;2023-05-07T09:28:53;26.00;46.30
11491;DHT22;5802;52.832;4.758;2023-05-07T09:31:20;26.00;46.30
11491;DHT22;5802;52.832;4.758;2023-05-07T09:33:48;26.10;46.40
11491;DHT22;5802;52.832;4.758;2023-05-07T09:36:16;26.10;46.50
11491;DHT22;5802;52.832;4.758;2023-05-07T09:38:45;26.10;46.40
11491;DHT22;5802;52.832;4.758;2023-05-07T09:41:13;26.10;47.00
11491;DHT22;5802;52.832;4.758;2023-05-07T09:43:40;26.20;46.70
11491;DHT22;5802;52.832;4.758;2023-05-07T09:46:08;26.20;46.70
11491;DHT22;5802;52.832;4.758;2023-05-07T09:48:39;26.20;46.70
11491;DHT22;5802;52.832;4.758;2023-05-07T09:51:14;26.20;46.80
11491;DHT22;5802;52.832;4.758;2023-05-07T09:53:44;26.20;46.90
11491;DHT22;5802;52.832;4.758;2023-05-07T09:56:13;26.20;46.80
11491;DHT22;5802;52.832;4.758;2023-05-07T09:58:42;26.20;46.90
11491;DHT22;5802;52.832;4.758;2023-05-07T10:01:11;26.20;46.90
11491;DHT22;5802;52.832;4.758;2023-05-07T10:03:40;26.20;47.00
11491;DHT22;5802;52.832;4.758;2023-05-07T10:06:08;26.30;47.00
11491;DHT22;5802;52.832;4.758;2023-05-07T10:08:35;26.30;47.10
11491;DHT22;5802;52.832;4.758;2023-05-07T10:11:06;26.30;47.20
11491;DHT22;5802;52.832;4.758;2023-05-07T10:13:33;26.30;47.30
11491;DHT22;5802;52.832;4.758;2023-05-07T10:16:01;26.30;47.30
11491;DHT22;5802;52.832;4.758;2023-05-07T10:18:30;26.30;47.20
11491;DHT22;5802;52.832;4.758;2023-05-07T10:21:02;26.30;47.10
11491;DHT22;5802;52.832;4.758;2023-05-07T10:23:31;26.30;47.10
11491;DHT22;5802;52.832;4.758;2023-05-07T10:26:00;26.30;47.20
11491;DHT22;5802;52.832;4.758;2023-05-07T10:28:31;26.40;47.30
11491;DHT22;5802;52.832;4.758;2023-05-07T10:31:09;26.40;47.20
11491;DHT22;5802;52.832;4.758;2023-05-07T10:33:37;26.50;47.00
11491;DHT22;5802;52.832;4.758;2023-05-07T10:36:05;26.50;46.90
11491;DHT22;5802;52.832;4.758;2023-05-07T10:38:33;26.50;46.80
11491;DHT22;5802;52.832;4.758;2023-05-07T10:41:00;26.60;46.80
11491;DHT22;5802;52.832;4.758;2023-05-07T10:43:40;26.60;46.80
11491;DHT22;5802;52.832;4.758;2023-05-07T10:46:14;26.60;46.80
11491;DHT22;5802;52.832;4.758;2023-05-07T10:49:11;26.70;46.80
11491;DHT22;5802;52.832;4.758;2023-05-07T10:51:39;26.70;46.60
11491;DHT22;5802;52.832;4.758;2023-05-07T10:54:19;26.70;46.60
11491;DHT22;5802;52.832;4.758;2023-05-07T10:56:46;26.70;46.70
11491;DHT22;5802;52.832;4.758;2023-05-07T10:59:37;26.70;46.80
11491;DHT22;5802;52.832;4.758;2023-05-07T11:02:08;26.70;46.60
11491;DHT22;5802;52.832;4.758;2023-05-07T11:04:37;26.70;46.70
11491;DHT22;5802;52.832;4.758;2023-05-07T11:07:27;26.70;46.80
11491;DHT22;5802;52.832;4.758;2023-05-07T11:09:56;26.70;46.70
11491;DHT22;5802;52.832;4.758;2023-05-07T11:12:53;26.70;46.80
11491;DHT22;5802;52.832;4.758;2023-05-07T11:15:51;26.70;46.90
11491;DHT22;5802;52.832;4.758;2023-05-07T11:18:18;26.70;46.80
11491;DHT22;5802;52.832;4.758;2023-05-07T11:20:53;26.70;46.70
11491;DHT22;5802;52.832;4.758;2023-05-07T11:23:56;26.70;46.60
11491;DHT22;5802;52.832;4.758;2023-05-07T11:26:29;26.70;46.60
11491;DHT22;5802;52.832;4.758;2023-05-07T11:28:56;26.70;46.80
11491;DHT22;5802;52.832;4.758;2023-05-07T11:31:27;26.70;46.80
11491;DHT22;5802;52.832;4.758;2023-05-07T11:33:55;26.70;46.80
11491;DHT22;5802;52.832;4.758;2023-05-07T11:36:23;26.70;46.70
11491;DHT22;5802;52.832;4.758;2023-05-07T11:38:50;26.70;46.60
11491;DHT22;5802;52.832;4.758;2023-05-07T11:41:17;26.70;46.60
11491;DHT22;5802;52.832;4.758;2023-05-07T11:43:58;26.70;46.60
11491;DHT22;5802;52.832;4.758;2023-05-07T11:46:27;26.70;46.40
11491;DHT22;5802;52.832;4.758;2023-05-07T11:48:55;26.70;46.50
11491;DHT22;5802;52.832;4.758;2023-05-07T11:51:23;26.70;46.40
11491;DHT22;5802;52.832;4.758;2023-05-07T11:53:52;26.70;46.40
11491;DHT22;5802;52.832;4.758;2023-05-07T11:56:19;26.70;46.40
11491;DHT22;5802;52.832;4.758;2023-05-07T11:58:46;26.70;47.10
11491;DHT22;5802;52.832;4.758;2023-05-07T12:01:14;26.70;46.50
11491;DHT22;5802;52.832;4.758;2023-05-07T12:03:44;26.70;46.40
11491;DHT22;5802;52.832;4.758;2023-05-07T12:06:12;26.60;46.30
11491;DHT22;5802;52.832;4.758;2023-05-07T12:08:40;26.60;46.40
11491;DHT22;5802;52.832;4.758;2023-05-07T12:11:08;26.60;46.40
11491;DHT22;5802;52.832;4.758;2023-05-07T12:13:37;26.60;46.40
11491;DHT22;5802;52.832;4.758;2023-05-07T12:16:05;26.60;46.30
11491;DHT22;5802;52.832;4.758;2023-05-07T12:18:32;26.60;46.20
11491;DHT22;5802;52.832;4.758;2023-05-07T12:21:00;26.70;46.00
11491;DHT22;5802;52.832;4.758;2023-05-07T12:23:28;26.70;46.00
11491;DHT22;5802;52.832;4.758;2023-05-07T12:25:55;26.70;46.00
11491;DHT22;5802;52.832;4.758;2023-05-07T12:28:21;26.70;46.20
11491;DHT22;5802;52.832;4.758;2023-05-07T12:30:50;26.80;46.40
11491;DHT22;5802;52.832;4.758;2023-05-07T12:33:17;26.80;46.40
11491;DHT22;5802;52.832;4.758;2023-05-07T12:35:47;26.80;46.30
11491;DHT22;5802;52.832;4.758;2023-05-07T12:38:16;26.80;46.20
11491;DHT22;5802;52.832;4.758;2023-05-07T12:40:44;26.80;46.30
11491;DHT22;5802;52.832;4.758;2023-05-07T12:43:16;26.80;46.20
11491;DHT22;5802;52.832;4.758;2023-05-07T12:45:44;26.80;46.20
11491;DHT22;5802;52.832;4.758;2023-05-07T12:48:11;26.80;46.40
11491;DHT22;5802;52.832;4.758;2023-05-07T12:50:38;26.80;46.50
11491;DHT22;5802;52.832;4.758;2023-05-07T12:53:06;26.80;46.70
11491;DHT22;5802;52.832;4.758;2023-05-07T12:55:40;26.70;46.80
11491;DHT22;5802;52.832;4.758;2023-05-07T12:58:07;26.70;46.80
11491;DHT22;5802;52.832;4.758;2023-05-07T13:00:35;26.70;46.90
11491;DHT22;5802;52.832;4.758;2023-05-07T13:03:02;26.70;46.90
11491;DHT22;5802;52.832;4.758;2023-05-07T13:05:29;26.70;47.00
11491;DHT22;5802;52.832;4.758;2023-05-07T13:07:56;26.70;46.90
11491;DHT22;5802;52.832;4.758;2023-05-07T13:10:23;26.70;46.80
11491;DHT22;5802;52.832;4.758;2023-05-07T13:12:52;26.70;46.80
11491;DHT22;5802;52.832;4.758;2023-05-07T13:15:18;26.70;46.90
11491;DHT22;5802;52.832;4.758;2023-05-07T13:17:45;26.70;46.70
11491;DHT22;5802;52.832;4.758;2023-05-07T13:20:12;26.70;46.50
11491;DHT22;5802;52.832;4.758;2023-05-07T13:22:39;26.70;46.50
11491;DHT22;5802;52.832;4.758;2023-05-07T13:25:07;26.70;46.50
11491;DHT22;5802;52.832;4.758;2023-05-07T13:27:34;26.70;46.50
11491;DHT22;5802;52.832;4.758;2023-05-07T13:30:04;26.70;46.50
11491;DHT22;5802;52.832;4.758;2023-05-07T13:32:31;26.60;46.60
11491;DHT22;5802;52.832;4.758;2023-05-07T13:34:58;26.60;46.60
11491;DHT22;5802;52.832;4.758;2023-05-07T13:37:24;26.60;46.60
11491;DHT22;5802;52.832;4.758;2023-05-07T13:39:51;26.50;46.70
11491;DHT22;5802;52.832;4.758;2023-05-07T13:42:17;26.50;46.90
11491;DHT22;5802;52.832;4.758;2023-05-07T13:44:44;26.50;47.00
11491;DHT22;5802;52.832;4.758;2023-05-07T13:47:12;26.40;47.10
11491;DHT22;5802;52.832;4.758;2023-05-07T13:49:39;26.40;47.10
11491;DHT22;5802;52.832;4.758;2023-05-07T13:52:06;26.40;47.30
11491;DHT22;5802;52.832;4.758;2023-05-07T13:54:32;26.30;47.20
11491;DHT22;5802;52.832;4.758;2023-05-07T13:56:59;26.30;47.40
11491;DHT22;5802;52.832;4.758;2023-05-07T13:59:26;26.20;47.50
11491;DHT22;5802;52.832;4.758;2023-05-07T14:01:52;26.20;47.90
11491;DHT22;5802;52.832;4.758;2023-05-07T14:04:21;26.20;48.40
11491;DHT22;5802;52.832;4.758;2023-05-07T14:06:48;26.20;48.80
11491;DHT22;5802;52.832;4.758;2023-05-07T14:09:15;26.10;48.80
11491;DHT22;5802;52.832;4.758;2023-05-07T14:11:41;26.10;49.00
11491;DHT22;5802;52.832;4.758;2023-05-07T14:14:08;26.00;49.00
11491;DHT22;5802;52.832;4.758;2023-05-07T14:16:36;26.00;48.80
11491;DHT22;5802;52.832;4.758;2023-05-07T14:19:02;26.00;48.60
11491;DHT22;5802;52.832;4.758;2023-05-07T14:21:30;26.00;48.50
11491;DHT22;5802;52.832;4.758;2023-05-07T14:23:57;26.00;48.30
11491;DHT22;5802;52.832;4.758;2023-05-07T14:26:25;26.00;48.20
11491;DHT22;5802;52.832;4.758;2023-05-07T14:28:53;26.00;48.10
11491;DHT22;5802;52.832;4.758;2023-05-07T14:31:22;26.00;48.00
11491;DHT22;5802;52.832;4.758;2023-05-07T14:33:49;26.00;47.90
11491;DHT22;5802;52.832;4.758;2023-05-07T14:36:16;26.00;47.80
11491;DHT22;5802;52.832;4.758;2023-05-07T14:38:44;26.10;47.80
11491;DHT22;5802;52.832;4.758;2023-05-07T14:41:10;26.10;47.70
11491;DHT22;5802;52.832;4.758;2023-05-07T14:43:37;26.10;47.60
11491;DHT22;5802;52.832;4.758;2023-05-07T14:46:04;26.20;47.60
11491;DHT22;5802;52.832;4.758;2023-05-07T14:48:31;26.20;47.50
11491;DHT22;5802;52.832;4.758;2023-05-07T14:50:57;26.20;47.30
11491;DHT22;5802;52.832;4.758;2023-05-07T14:53:24;26.20;47.30
11491;DHT22;5802;52.832;4.758;2023-05-07T14:55:52;26.20;47.90
11491;DHT22;5802;52.832;4.758;2023-05-07T14:58:19;26.20;47.20
11491;DHT22;5802;52.832;4.758;2023-05-07T15:00:45;26.20;47.10
11491;DHT22;5802;52.832;4.758;2023-05-07T15:03:12;26.20;47.00
11491;DHT22;5802;52.832;4.758;2023-05-07T15:05:39;26.20;47.00
11491;DHT22;5802;52.832;4.758;2023-05-07T15:08:06;26.20;47.00
11491;DHT22;5802;52.832;4.758;2023-05-07T15:10:35;26.30;46.90
11491;DHT22;5802;52.832;4.758;2023-05-07T15:13:07;26.30;46.90
11491;DHT22;5802;52.832;4.758;2023-05-07T15:15:34;26.30;46.80
11491;DHT22;5802;52.832;4.758;2023-05-07T15:18:01;26.30;46.80
11491;DHT22;5802;52.832;4.758;2023-05-07T15:20:28;26.30;46.70
11491;DHT22;5802;52.832;4.758;2023-05-07T15:22:55;26.40;46.70
11491;DHT22;5802;52.832;4.758;2023-05-07T15:25:22;26.40;46.60
11491;DHT22;5802;52.832;4.758;2023-05-07T15:27:49;26.40;46.60
11491;DHT22;5802;52.832;4.758;2023-05-07T15:30:18;26.40;46.50
11491;DHT22;5802;52.832;4.758;2023-05-07T15:32:45;26.40;46.50
11491;DHT22;5802;52.832;4.758;2023-05-07T15:35:12;26.40;46.40
11491;DHT22;5802;52.832;4.758;2023-05-07T15:37:39;26.40;46.40
11491;DHT22;5802;52.832;4.758;2023-05-07T15:40:07;26.40;46.40
11491;DHT22;5802;52.832;4.758;2023-05-07T15:42:34;26.30;46.40
11491;DHT22;5802;52.832;4.758;2023-05-07T15:45:01;26.40;46.50
11491;DHT22;5802;52.832;4.758;2023-05-07T15:47:32;26.30;46.40
11491;DHT22;5802;52.832;4.758;2023-05-07T15:50:00;26.30;46.40